Time;durP1;ratioP1;P1;durP2;ratioP2;P2;SDS_P1;SDS_P2;PMS_P1;PMS_P2;Temp;Humidity;BMP_temperature;BMP_pressure;BME280_temperature;BME280_humidity;BME280_pressure;Samples;Min_cycle;Max_cycle;Signal;HPM_P1;HPM_P2
2022/11/05 00:09:32;;;;;;;;;;;;;;;19.85;44.42;94731.81;6122723;19;1929;-68
2022/11/05 00:18:37;;;;;;;;;;;;;;;19.86;44.50;94741.47;6116457;19;1926;-67
2022/11/05 00:20:40;;;;;;;;;;;;;;;19.86;44.40;94735.28;6120800;19;2133;-67
2022/11/05 00:27:17;;;;;;;;;;;;;;;19.86;44.25;94721.97;6123816;19;1848;-67
2022/11/05 00:29:21;;;;;;;;;;;;;;;19.87;44.38;94720.94;6121916;19;2000;-68
2022/11/05 00:31:24;;;;;;;;;;;;;;;19.86;44.44;94717.47;6123311;19;1916;-68
2022/11/05 00:33:27;;;;;;;;;;;;;;;19.87;44.51;94716.44;6097122;19;1877;-64
2022/11/05 00:35:31;;;;;;;;;;;;;;;19.87;44.25;94724.44;6122215;19;2226;-67
2022/11/05 00:37:34;;;;;;;;;;;;;;;19.87;44.63;94720.94;6122464;19;1931;-68
2022/11/05 00:39:40;;;;;;;;;;;;;;;19.87;44.64;94731.63;6124401;19;2040;-68
2022/11/05 00:44:58;;;;;;;;;;;;;;;19.86;44.51;94720.13;6121384;19;973;-65
2022/11/05 00:46:22;;;;;;;;;;;;;;;19.86;44.70;94728.13;6109241;19;2112;-68
2022/11/05 00:50:41;;;;;;;;;;;;;;;19.87;44.43;94712.94;6124353;19;1916;-68
2022/11/05 00:53:00;;;;;;;;;;;;;;;19.86;44.40;94709.47;6119264;19;1395;-68
2022/11/05 00:55:06;;;;;;;;;;;;;;;19.86;44.50;94714.81;6122702;19;1954;-67
2022/11/05 00:57:10;;;;;;;;;;;;;;;19.87;44.75;94703.09;6094524;19;1853;-67
2022/11/05 00:59:13;;;;;;;;;;;;;;;19.87;44.78;94708.44;6122507;19;2054;-63
2022/11/05 01:01:16;;;;;;;;;;;;;;;19.86;45.07;94709.47;6122823;19;1924;-67
2022/11/05 01:03:21;;;;;;;;;;;;;;;19.88;44.76;94695.91;6122523;19;1867;-67
2022/11/05 01:05:24;;;;;;;;;;;;;;;19.88;44.73;94690.56;6120876;19;1943;-66
2022/11/05 01:07:27;;;;;;;;;;;;;;;19.88;44.53;94707.38;6107055;19;2127;-68
2022/11/05 01:09:30;;;;;;;;;;;;;;;19.88;44.53;94690.56;6108236;19;2216;-68
2022/11/05 01:11:36;;;;;;;;;;;;;;;19.88;44.82;94685.25;6119880;19;950;-66
2022/11/05 01:13:41;;;;;;;;;;;;;;;19.88;44.55;94691.38;6119021;19;2113;-67
2022/11/05 01:15:44;;;;;;;;;;;;;;;19.88;45.00;94690.56;6118808;19;1941;-68
2022/11/05 01:17:47;;;;;;;;;;;;;;;19.87;44.92;94684.44;6123006;19;2063;-68
2022/11/05 01:19:50;;;;;;;;;;;;;;;19.88;44.82;94685.25;6094436;19;1924;-68
2022/11/05 01:21:54;;;;;;;;;;;;;;;19.87;44.62;94689.75;6119466;19;1088;-67
2022/11/05 01:23:57;;;;;;;;;;;;;;;19.88;44.73;94679.91;6120452;19;1920;-68
2022/11/05 01:26:00;;;;;;;;;;;;;;;19.88;44.54;94669.25;6119783;19;950;-67
2022/11/05 01:28:08;;;;;;;;;;;;;;;19.88;44.81;94680.72;6118972;19;2129;-67
2022/11/05 01:30:12;;;;;;;;;;;;;;;19.87;44.86;94673.78;6110731;19;1775;-68
2022/11/05 01:32:15;;;;;;;;;;;;;;;19.87;44.79;94664.97;6107833;19;2108;-67
2022/11/05 01:34:18;;;;;;;;;;;;;;;19.87;45.14;94673.78;6120125;19;1913;-67
2022/11/05 01:36:22;;;;;;;;;;;;;;;19.88;44.93;94656.72;6118299;19;2056;-68
2022/11/05 01:38:25;;;;;;;;;;;;;;;19.88;45.33;94648.72;6120907;19;1856;-67
2022/11/05 01:40:28;;;;;;;;;;;;;;;19.89;44.98;94650.38;6120554;19;2082;-67
2022/11/05 01:42:33;;;;;;;;;;;;;;;19.91;45.30;94636.00;6094823;19;2013;-68
2022/11/05 01:44:51;;;;;;;;;;;;;;;19.91;44.88;94641.34;6120739;19;1862;-68
2022/11/05 01:46:57;;;;;;;;;;;;;;;19.89;45.25;94650.38;6120675;19;1861;-64
2022/11/05 01:49:04;;;;;;;;;;;;;;;19.91;45.01;94642.16;6120875;19;2035;-67
2022/11/05 01:51:09;;;;;;;;;;;;;;;19.90;44.90;94624.53;6118720;19;1805;-67
2022/11/05 01:53:16;;;;;;;;;;;;;;;19.89;44.81;94629.06;6108980;19;1993;-68
2022/11/05 01:55:25;;;;;;;;;;;;;;;19.91;45.24;94633.34;6105795;19;1893;-67
2022/11/05 01:57:28;;;;;;;;;;;;;;;19.89;45.13;94629.06;6120947;19;2100;-67
2022/11/05 01:59:33;;;;;;;;;;;;;;;19.89;44.89;94623.72;6117827;19;1347;-67
2022/11/05 02:01:37;;;;;;;;;;;;;;;19.89;45.08;94623.72;6121538;19;1950;-67
2022/11/05 02:03:44;;;;;;;;;;;;;;;19.89;45.14;94623.72;6120988;19;2028;-68
2022/11/05 02:05:49;;;;;;;;;;;;;;;19.89;45.10;94618.38;6092798;19;2059;-68
2022/11/05 02:07:52;;;;;;;;;;;;;;;19.91;45.17;94617.34;6119337;19;1857;-67
2022/11/05 02:09:58;;;;;;;;;;;;;;;19.89;45.30;94621.06;6120492;19;1821;-68
2022/11/05 02:12:02;;;;;;;;;;;;;;;19.91;44.90;94620.00;6119824;19;1968;-67
2022/11/05 02:14:06;;;;;;;;;;;;;;;19.90;45.10;94624.53;6120787;19;1904;-67
2022/11/05 02:16:15;;;;;;;;;;;;;;;19.90;45.20;94624.53;6108005;19;2036;-65
2022/11/05 02:18:22;;;;;;;;;;;;;;;19.89;45.04;94623.72;6106739;19;2091;-68
2022/11/05 02:20:34;;;;;;;;;;;;;;;19.90;45.27;94629.88;6118839;19;1935;-67
2022/11/05 02:22:52;;;;;;;;;;;;;;;19.90;44.78;94632.53;6119814;19;1938;-67
2022/11/05 02:25:02;;;;;;;;;;;;;;;19.89;44.82;94615.72;6120970;19;1830;-67
2022/11/05 02:27:20;;;;;;;;;;;;;;;19.90;45.22;94624.53;6123669;19;1857;-67
2022/11/05 02:29:38;;;;;;;;;;;;;;;19.90;45.06;94624.53;6100726;19;1897;-61
2022/11/05 02:31:49;;;;;;;;;;;;;;;19.91;45.03;94620.00;6123590;19;1998;-60
2022/11/05 02:33:58;;;;;;;;;;;;;;;19.91;45.43;94618.16;6127262;19;1910;-60
2022/11/05 02:36:08;;;;;;;;;;;;;;;19.92;45.42;94626.97;6127758;19;1985;-62
2022/11/05 02:38:13;;;;;;;;;;;;;;;19.91;45.47;94634.16;6128461;19;1686;-60
2022/11/05 02:40:19;;;;;;;;;;;;;;;19.92;45.47;94626.97;6103478;19;1923;-60
2022/11/05 02:42:30;;;;;;;;;;;;;;;19.91;45.32;94625.34;6124577;19;1034;-60
2022/11/05 02:44:39;;;;;;;;;;;;;;;19.91;45.09;94633.34;6125042;19;1061;-64
2022/11/05 02:46:47;;;;;;;;;;;;;;;19.92;45.31;94632.28;6128708;19;2163;-68
2022/11/05 02:48:53;;;;;;;;;;;;;;;19.91;45.35;94631.47;6124339;19;2286;-67
2022/11/05 02:51:00;;;;;;;;;;;;;;;19.92;45.21;94632.28;6117046;19;1911;-66
2022/11/05 02:53:04;;;;;;;;;;;;;;;19.92;45.65;94632.28;6116262;19;1899;-67
2022/11/05 02:55:12;;;;;;;;;;;;;;;19.95;45.48;94637.22;6127446;19;2202;-67
2022/11/05 02:57:15;;;;;;;;;;;;;;;19.95;45.24;94639.88;6126335;19;2096;-65
2022/11/05 02:59:18;;;;;;;;;;;;;;;19.96;44.87;94638.84;6125483;19;2071;-66
2022/11/05 03:01:21;;;;;;;;;;;;;;;19.96;45.28;94649.50;6125512;19;2123;-66
2022/11/05 03:03:36;;;;;;;;;;;;;;;19.94;45.19;94641.72;6101308;19;2107;-67
2022/11/05 03:05:44;;;;;;;;;;;;;;;19.93;45.41;94636.63;6125769;19;2057;-67
2022/11/05 03:07:51;;;;;;;;;;;;;;;19.93;45.29;94641.94;6126202;19;1850;-66
2022/11/05 03:10:18;;;;;;;;;;;;;;;19.92;45.19;94625.13;6127025;19;1955;-67
2022/11/05 03:12:32;;;;;;;;;;;;;;;19.92;45.15;94624.28;6122398;19;2196;-66
2022/11/05 03:14:41;;;;;;;;;;;;;;;19.93;45.20;94636.63;6101662;19;2150;-67
2022/11/05 03:16:48;;;;;;;;;;;;;;;19.93;45.42;94636.63;6125989;19;1718;-67
2022/11/05 03:19:00;;;;;;;;;;;;;;;19.92;45.26;94634.97;6126370;19;1967;-66
2022/11/05 03:21:06;;;;;;;;;;;;;;;19.91;44.95;94633.34;6126224;19;1920;-66
2022/11/05 03:23:13;;;;;;;;;;;;;;;19.91;44.99;94628.81;6125335;19;2112;-66
2022/11/05 03:25:19;;;;;;;;;;;;;;;19.91;45.07;94636.00;6114354;19;1931;-67
2022/11/05 03:27:26;;;;;;;;;;;;;;;19.92;45.46;94632.28;6113638;19;2101;-65
2022/11/05 03:29:31;;;;;;;;;;;;;;;19.92;45.30;94638.47;6126442;19;2105;-66
2022/11/05 03:31:37;;;;;;;;;;;;;;;19.93;45.58;94645.44;6125510;19;1859;-66
2022/11/05 03:33:41;;;;;;;;;;;;;;;19.93;45.45;94644.63;6125672;19;2111;-65
2022/11/05 03:35:49;;;;;;;;;;;;;;;19.93;45.21;94644.63;6125713;19;1855;-67
2022/11/05 03:37:55;;;;;;;;;;;;;;;19.92;45.47;94648.28;6100080;19;2031;-64
2022/11/05 03:40:01;;;;;;;;;;;;;;;19.93;45.65;94649.94;6126251;19;1992;-67
2022/11/05 03:42:06;;;;;;;;;;;;;;;19.93;45.43;94657.94;6124678;19;1763;-66
2022/11/05 03:44:11;;;;;;;;;;;;;;;19.93;45.77;94663.28;6126885;19;1863;-63
2022/11/05 03:46:19;;;;;;;;;;;;;;;19.94;45.44;94672.91;6125599;19;2006;-65
2022/11/05 03:48:24;;;;;;;;;;;;;;;19.91;45.61;94666.16;6100212;19;2145;-65
2022/11/05 03:50:31;;;;;;;;;;;;;;;19.95;45.65;94674.56;6125208;19;2141;-65
2022/11/05 03:52:39;;;;;;;;;;;;;;;19.98;45.33;94674.13;6125455;19;1909;-66
2022/11/05 03:54:43;;;;;;;;;;;;;;;19.98;45.40;94671.47;6126391;19;2103;-65
2022/11/05 03:56:52;;;;;;;;;;;;;;;19.96;45.58;94676.19;6124576;19;2059;-66
2022/11/05 03:58:56;;;;;;;;;;;;;;;19.96;45.59;94671.66;6122658;19;2029;-64
2022/11/05 04:01:01;;;;;;;;;;;;;;;19.96;45.57;94671.66;6107891;19;1849;-66
2022/11/05 04:03:04;;;;;;;;;;;;;;;19.97;45.61;94677.81;6123740;19;2104;-65
2022/11/05 04:05:08;;;;;;;;;;;;;;;19.96;45.85;94682.31;6124269;19;1737;-65
2022/11/05 04:14:01;;;;;;;;;;;;;;;19.95;45.72;94682.56;6125425;19;1849;-67
2022/11/05 04:18:20;;;;;;;;;;;;;;;19.95;45.50;94675.38;6124653;19;1757;-66
2022/11/05 04:24:57;;;;;;;;;;;;;;;19.93;45.71;94688.09;6123645;19;2092;-67
2022/11/05 04:27:00;;;;;;;;;;;;;;;19.93;45.88;94692.59;6123550;19;2080;-66
2022/11/05 04:31:19;;;;;;;;;;;;;;;19.93;45.85;94696.09;6124398;19;1929;-67
2022/11/05 04:33:23;;;;;;;;;;;;;;;19.93;45.58;94698.75;6111742;19;2209;-67
2022/11/05 04:35:27;;;;;;;;;;;;;;;19.94;45.95;94700.38;6111351;19;2197;-67
2022/11/05 04:37:30;;;;;;;;;;;;;;;19.94;45.71;94696.91;6121899;19;2080;-67
2022/11/05 04:39:33;;;;;;;;;;;;;;;19.95;45.55;94695.88;6122971;19;2085;-65
2022/11/05 04:41:39;;;;;;;;;;;;;;;19.93;45.85;94700.59;6124398;19;2132;-66
2022/11/05 04:43:42;;;;;;;;;;;;;;;19.94;46.07;94705.72;6124079;19;1782;-67
2022/11/05 04:45:46;;;;;;;;;;;;;;;19.94;45.65;94708.38;6100257;19;1643;-66
2022/11/05 04:47:49;;;;;;;;;;;;;;;19.95;45.59;94711.88;6123903;19;1842;-67
2022/11/05 04:49:53;;;;;;;;;;;;;;;19.94;45.94;94711.03;6119534;19;2013;-67
2022/11/05 04:51:56;;;;;;;;;;;;;;;19.95;45.85;94717.22;6124488;19;2056;-66
2022/11/05 04:53:59;;;;;;;;;;;;;;;19.93;45.64;94705.94;6124134;19;2019;-65
2022/11/05 04:56:10;;;;;;;;;;;;;;;19.94;45.99;94704.91;6110745;19;2061;-65
2022/11/05 04:58:16;;;;;;;;;;;;;;;19.93;45.90;94705.94;6109454;19;2017;-65
2022/11/05 05:00:20;;;;;;;;;;;;;;;19.94;45.98;94708.38;6119902;19;2013;-68
2022/11/05 05:02:23;;;;;;;;;;;;;;;19.87;46.06;94705.75;6122406;19;2068;-66
2022/11/05 05:04:27;;;;;;;;;;;;;;;19.89;45.74;94702.91;6122129;19;2010;-69
2022/11/05 05:06:30;;;;;;;;;;;;;;;19.96;45.87;94705.50;6120631;19;1852;-66
2022/11/05 05:08:33;;;;;;;;;;;;;;;19.96;46.11;94711.66;6097829;19;1857;-65
2022/11/05 05:10:37;;;;;;;;;;;;;;;19.96;45.88;94713.50;6121065;19;1914;-72
2022/11/05 05:12:40;;;;;;;;;;;;;;;19.97;45.92;94710.63;6121897;19;1505;-73
2022/11/05 05:14:48;;;;;;;;;;;;;;;19.97;46.09;94707.13;6121271;19;1612;-72
2022/11/05 05:16:51;;;;;;;;;;;;;;;19.96;45.76;94709.00;6121469;19;1635;-73
2022/11/05 05:18:55;;;;;;;;;;;;;;;19.97;45.75;94725.81;6110253;19;1912;-70
2022/11/05 05:23:14;;;;;;;;;;;;;;;19.96;45.68;94729.50;6122735;19;1923;-71
2022/11/05 05:25:18;;;;;;;;;;;;;;;19.96;45.63;94734.84;6120244;19;1995;-70
2022/11/05 05:27:21;;;;;;;;;;;;;;;19.96;45.75;94729.50;6120702;19;1853;-70
2022/11/05 05:29:24;;;;;;;;;;;;;;;19.96;45.82;94735.66;6117977;19;1940;-71
2022/11/05 05:31:30;;;;;;;;;;;;;;;19.96;45.63;94740.19;6096780;19;2044;-71
2022/11/05 05:33:34;;;;;;;;;;;;;;;19.95;45.62;94739.38;6121702;19;1988;-71
2022/11/05 05:35:37;;;;;;;;;;;;;;;19.96;45.51;94746.31;6121118;19;1915;-71
2022/11/05 05:37:40;;;;;;;;;;;;;;;19.97;45.96;94749.81;6121825;19;1843;-72
2022/11/05 05:39:44;;;;;;;;;;;;;;;19.97;46.03;94747.13;6117821;19;1931;-71
2022/11/05 05:41:48;;;;;;;;;;;;;;;19.97;45.94;94744.47;6116518;19;1955;-71
2022/11/05 05:43:51;;;;;;;;;;;;;;;19.99;45.86;94753.09;6102216;19;1210;-66
2022/11/05 05:45:56;;;;;;;;;;;;;;;19.97;46.00;94757.81;6119279;19;2103;-66
2022/11/05 05:48:02;;;;;;;;;;;;;;;19.97;45.92;94755.94;6120427;19;1925;-67
2022/11/05 05:50:06;;;;;;;;;;;;;;;19.97;46.14;94757.81;6117132;19;1951;-66
2022/11/05 05:52:09;;;;;;;;;;;;;;;19.97;46.35;94760.47;6120082;19;1673;-68
2022/11/05 05:54:13;;;;;;;;;;;;;;;19.99;46.04;94767.22;6094809;19;1340;-68
2022/11/05 05:56:19;;;;;;;;;;;;;;;19.99;45.76;94761.06;6119617;19;1923;-67
2022/11/05 05:58:22;;;;;;;;;;;;;;;19.99;45.81;94764.56;6120850;19;2042;-67
2022/11/05 06:00:25;;;;;;;;;;;;;;;19.99;46.26;94759.22;6116742;19;2115;-67
2022/11/05 06:02:31;;;;;;;;;;;;;;;20.00;45.93;94768.03;6119581;19;2170;-66
2022/11/05 06:04:37;;;;;;;;;;;;;;;20.00;46.30;94762.69;6121241;19;1637;-66
2022/11/05 06:06:40;;;;;;;;;;;;;;;19.97;45.74;94769.28;6094855;19;1890;-67
2022/11/05 06:08:44;;;;;;;;;;;;;;;19.31;43.52;94769.53;6118304;19;1860;-68
2022/11/05 06:10:51;;;;;;;;;;;;;;;19.00;43.18;94773.69;6119688;19;1848;-66
2022/11/05 06:12:55;;;;;;;;;;;;;;;18.75;42.62;94768.19;6118992;19;1053;-68
2022/11/05 06:14:58;;;;;;;;;;;;;;;18.58;42.65;94758.97;6120241;19;2097;-67
2022/11/05 06:17:01;;;;;;;;;;;;;;;18.45;42.66;94760.59;6097837;19;2140;-68
2022/11/05 06:19:05;;;;;;;;;;;;;;;18.39;42.80;94760.63;6121197;19;1875;-68
2022/11/05 06:21:12;;;;;;;;;;;;;;;18.38;42.32;94759.81;6119817;19;2117;-68
2022/11/05 06:23:15;;;;;;;;;;;;;;;18.33;42.63;94763.06;6120270;19;2038;-68
2022/11/05 06:25:18;;;;;;;;;;;;;;;18.32;42.62;94765.91;6122037;19;1858;-67
2022/11/05 06:27:22;;;;;;;;;;;;;;;18.24;42.19;94768.75;6118361;19;917;-66
2022/11/05 06:29:25;;;;;;;;;;;;;;;18.30;42.55;94767.97;6095174;19;1862;-68
2022/11/05 06:31:28;;;;;;;;;;;;;;;18.31;42.57;94770.41;6117237;19;1005;-68
2022/11/05 06:33:32;;;;;;;;;;;;;;;18.20;42.81;94763.03;6118203;19;1627;-67
2022/11/05 06:35:35;;;;;;;;;;;;;;;18.15;42.80;94754.03;6120078;19;2096;-67
2022/11/05 06:37:41;;;;;;;;;;;;;;;18.17;42.72;94759.97;6119809;19;2089;-67
2022/11/05 06:39:44;;;;;;;;;;;;;;;18.23;42.40;94761.81;6109048;19;2147;-68
2022/11/05 06:41:48;;;;;;;;;;;;;;;18.28;42.40;94756.72;6108795;19;1908;-71
2022/11/05 06:43:51;;;;;;;;;;;;;;;18.34;42.04;94755.88;6117724;19;1922;-69
2022/11/05 06:45:54;;;;;;;;;;;;;;;18.25;42.35;94757.94;6119010;19;2150;-68
2022/11/05 06:47:58;;;;;;;;;;;;;;;18.16;42.25;94755.69;6120950;19;1851;-70
2022/11/05 06:50:01;;;;;;;;;;;;;;;18.19;42.81;94749.97;6116463;19;1889;-69
2022/11/05 06:52:05;;;;;;;;;;;;;;;18.18;42.21;94757.13;6095720;19;2044;-69
2022/11/05 06:54:11;;;;;;;;;;;;;;;18.11;42.72;94756.28;6118428;19;2045;-69
2022/11/05 06:56:14;;;;;;;;;;;;;;;18.20;42.30;94751.59;6118406;19;1895;-69
2022/11/05 06:58:18;;;;;;;;;;;;;;;18.21;42.24;94742.56;6116270;19;2047;-69
2022/11/05 07:00:21;;;;;;;;;;;;;;;18.17;42.20;94738.69;6114233;19;1961;-68
2022/11/05 07:02:25;;;;;;;;;;;;;;;18.16;42.24;94739.72;6106350;19;1924;-69
2022/11/05 07:04:28;;;;;;;;;;;;;;;18.26;42.49;94748.91;6106760;19;2084;-69
2022/11/05 07:06:31;;;;;;;;;;;;;;;18.26;42.30;94740.13;6117255;19;1723;-69
2022/11/05 07:08:35;;;;;;;;;;;;;;;18.27;42.89;94736.47;6119728;19;1689;-70
2022/11/05 07:10:41;;;;;;;;;;;;;;;18.26;42.94;94734.81;6116034;19;2139;-70
2022/11/05 07:12:44;;;;;;;;;;;;;;;18.20;42.91;94728.47;6120898;19;1954;-68
2022/11/05 07:14:48;;;;;;;;;;;;;;;18.31;42.92;94727.03;6100249;19;1813;-69
2022/11/05 07:16:51;;;;;;;;;;;;;;;18.34;42.64;94739.94;6124202;19;2054;-69
2022/11/05 07:18:54;;;;;;;;;;;;;;;18.51;42.64;94732.38;6125396;19;2066;-70
2022/11/05 07:20:58;;;;;;;;;;;;;;;18.81;43.09;94732.78;6125898;19;2017;-69
2022/11/05 07:23:02;;;;;;;;;;;;;;;18.73;42.29;94733.81;6124646;19;2072;-70
2022/11/05 07:25:06;;;;;;;;;;;;;;;18.52;42.36;94729.50;6116318;19;1811;-70
2022/11/05 07:27:12;;;;;;;;;;;;;;;18.33;42.76;94727.66;6110790;19;1459;-71
2022/11/05 07:29:15;;;;;;;;;;;;;;;18.24;42.54;94729.72;6123142;19;1861;-71
2022/11/05 07:31:19;;;;;;;;;;;;;;;18.25;42.88;94722.53;6121558;19;1037;-70
2022/11/05 07:33:22;;;;;;;;;;;;;;;18.30;42.92;94731.56;6125667;19;2030;-67
2022/11/05 07:35:25;;;;;;;;;;;;;;;18.35;42.68;94722.94;6123527;19;1863;-69
2022/11/05 07:37:29;;;;;;;;;;;;;;;18.41;42.65;94724.81;6100396;19;1949;-69
2022/11/05 07:39:32;;;;;;;;;;;;;;;18.46;43.01;94721.50;6122682;19;1916;-69
2022/11/05 07:41:35;;;;;;;;;;;;;;;18.42;43.02;94714.97;6124176;19;2936;-70
2022/11/05 07:43:41;;;;;;;;;;;;;;;18.43;43.12;94706.78;6124615;19;1957;-70
2022/11/05 07:45:46;;;;;;;;;;;;;;;18.40;42.91;94709.84;6124221;19;1705;-70
2022/11/05 07:47:50;;;;;;;;;;;;;;;18.44;42.93;94708.44;6114197;19;1764;-69
2022/11/05 07:49:53;;;;;;;;;;;;;;;18.46;42.88;94714.34;6109090;19;1834;-70
2022/11/05 07:51:57;;;;;;;;;;;;;;;18.51;42.57;94705.75;6123713;19;1928;-70
2022/11/05 07:54:00;;;;;;;;;;;;;;;18.36;42.81;94705.16;6125350;19;1482;-70
2022/11/05 07:56:04;;;;;;;;;;;;;;;18.42;42.78;94709.66;6121284;19;1132;-70
2022/11/05 07:58:07;;;;;;;;;;;;;;;18.42;42.74;94702.50;6117548;19;1881;-70
2022/11/05 08:00:14;;;;;;;;;;;;;;;18.29;42.79;94707.81;6081653;19;2053;-70
2022/11/05 08:02:18;;;;;;;;;;;;;;;18.22;42.85;94709.66;6123149;19;1932;-70
2022/11/05 08:04:21;;;;;;;;;;;;;;;18.16;42.67;94713.13;6123474;19;2094;-70
2022/11/05 08:06:24;;;;;;;;;;;;;;;18.24;42.92;94715.56;6121477;19;1951;-68
2022/11/05 08:08:28;;;;;;;;;;;;;;;18.22;43.01;94707.00;6121639;19;1045;-71
2022/11/05 08:10:32;;;;;;;;;;;;;;;18.29;42.71;94718.44;6118817;19;1841;-67
2022/11/05 08:12:36;;;;;;;;;;;;;;;18.32;42.85;94708.25;6104462;19;1779;-70
2022/11/05 08:14:39;;;;;;;;;;;;;;;18.01;43.17;94703.50;6122259;19;1882;-70
2022/11/05 08:16:45;;;;;;;;;;;;;;;18.12;43.08;94701.25;6119601;19;1383;-73
2022/11/05 08:18:48;;;;;;;;;;;;;;;18.47;42.67;94699.22;6121591;19;1069;-67
2022/11/05 08:20:51;;;;;;;;;;;;;;;18.16;43.21;94694.53;6121557;19;1009;-66
2022/11/05 08:22:55;;;;;;;;;;;;;;;18.21;42.93;94694.72;6097186;19;1301;-67
2022/11/05 08:24:58;;;;;;;;;;;;;;;18.67;43.69;94696.56;6121219;19;1038;-67
2022/11/05 08:27:02;;;;;;;;;;;;;;;18.87;43.42;94696.53;6122198;19;1045;-67
2022/11/05 08:29:05;;;;;;;;;;;;;;;18.86;42.85;94689.56;6121055;19;1192;-67
2022/11/05 08:31:09;;;;;;;;;;;;;;;18.22;43.09;94691.84;6120203;19;1845;-67
2022/11/05 08:33:15;;;;;;;;;;;;;;;18.64;43.05;94700.44;6120933;19;1068;-67
2022/11/05 08:35:19;;;;;;;;;;;;;;;18.90;42.48;94696.94;6103248;19;1296;-67
2022/11/05 08:37:22;;;;;;;;;;;;;;;18.92;42.25;94696.69;6120000;19;1026;-67
2022/11/05 08:39:26;;;;;;;;;;;;;;;18.74;42.14;94692.84;6118980;19;1425;-72
2022/11/05 08:41:29;;;;;;;;;;;;;;;18.62;41.91;94691.00;6120603;19;1002;-72
2022/11/05 08:43:32;;;;;;;;;;;;;;;18.51;42.30;94679.97;6119578;19;1124;-72
2022/11/05 08:45:36;;;;;;;;;;;;;;;18.49;42.33;94687.31;6097769;19;1191;-71
2022/11/05 08:47:39;;;;;;;;;;;;;;;18.49;42.19;94681.19;6120565;19;1045;-73
2022/11/05 08:49:45;;;;;;;;;;;;;;;18.51;42.33;94679.97;6120263;19;1855;-71
2022/11/05 08:51:49;;;;;;;;;;;;;;;18.47;42.23;94683.25;6119908;19;1298;-73
2022/11/05 08:53:52;;;;;;;;;;;;;;;18.49;42.32;94681.19;6120084;19;1144;-73
2022/11/05 08:55:59;;;;;;;;;;;;;;;18.47;42.02;94689.41;6120545;19;946;-73
2022/11/05 08:58:03;;;;;;;;;;;;;;;18.48;42.00;94680.38;6104659;19;1305;-72
2022/11/05 09:00:07;;;;;;;;;;;;;;;18.50;42.12;94681.00;6117571;19;1337;-73
2022/11/05 09:02:11;;;;;;;;;;;;;;;18.54;42.16;94671.56;6119791;19;1057;-72
2022/11/05 09:04:14;;;;;;;;;;;;;;;18.56;41.79;94676.69;6120045;19;1041;-72
2022/11/05 09:06:21;;;;;;;;;;;;;;;18.54;42.04;94676.88;6118194;19;1115;-73
2022/11/05 09:08:25;;;;;;;;;;;;;;;18.75;41.87;94661.72;6097691;19;1243;-70
2022/11/05 09:10:28;;;;;;;;;;;;;;;18.98;42.00;94670.09;6119356;19;1857;-70
2022/11/05 09:12:31;;;;;;;;;;;;;;;19.09;42.08;94665.13;6119678;19;1093;-69
2022/11/05 09:14:35;;;;;;;;;;;;;;;19.15;41.88;94670.44;6119246;19;951;-69
2022/11/05 09:16:38;;;;;;;;;;;;;;;19.21;42.09;94669.59;6119588;19;1083;-69
2022/11/05 09:18:41;;;;;;;;;;;;;;;19.22;41.74;94663.22;6114836;19;1057;-67
2022/11/05 09:20:45;;;;;;;;;;;;;;;19.27;41.83;94673.25;6103592;19;1366;-70
2022/11/05 09:22:51;;;;;;;;;;;;;;;19.28;42.25;94664.22;6119785;19;1236;-70
2022/11/05 09:24:54;;;;;;;;;;;;;;;19.31;42.10;94669.13;6120380;19;1264;-70
2022/11/05 09:26:57;;;;;;;;;;;;;;;19.34;42.33;94665.22;6119574;19;1053;-71
2022/11/05 09:29:01;;;;;;;;;;;;;;;19.38;41.98;94664.59;6118780;19;1124;-71
2022/11/05 09:31:07;;;;;;;;;;;;;;;19.42;41.76;94660.47;6096601;19;1849;-72
2022/11/05 09:33:10;;;;;;;;;;;;;;;19.44;42.20;94661.06;6119386;19;1041;-71
2022/11/05 09:35:13;;;;;;;;;;;;;;;19.46;41.94;94655.53;6118132;19;966;-70
2022/11/05 09:37:17;;;;;;;;;;;;;;;19.49;42.09;94648.94;6119860;19;1028;-71
2022/11/05 09:39:23;;;;;;;;;;;;;;;19.50;41.74;94654.06;6119769;19;1128;-70
2022/11/05 09:41:30;;;;;;;;;;;;;;;19.53;41.71;94652.88;6114280;19;1048;-70
2022/11/05 09:43:36;;;;;;;;;;;;;;;19.54;41.95;94651.81;6106136;19;1260;-70
2022/11/05 09:45:40;;;;;;;;;;;;;;;19.52;42.45;94648.53;6119422;19;1021;-70
2022/11/05 09:47:45;;;;;;;;;;;;;;;19.50;42.51;94645.28;6119022;19;1136;-70
2022/11/05 09:49:50;;;;;;;;;;;;;;;19.51;42.44;94647.72;6118921;19;1858;-70
2022/11/05 09:51:54;;;;;;;;;;;;;;;19.53;42.67;94643.03;6117876;19;1156;-69
2022/11/05 09:53:58;;;;;;;;;;;;;;;19.55;42.33;94640.13;6096064;19;1540;-70
2022/11/05 09:56:04;;;;;;;;;;;;;;;19.55;42.76;94635.63;6117605;19;1585;-70
2022/11/05 09:58:14;;;;;;;;;;;;;;;19.55;42.58;94642.78;6118034;19;1577;-70
2022/11/05 10:00:18;;;;;;;;;;;;;;;19.57;42.87;94641.56;6117747;19;1532;-72
2022/11/05 10:02:23;;;;;;;;;;;;;;;19.57;42.53;94646.06;6120416;19;1806;-70
2022/11/05 10:04:29;;;;;;;;;;;;;;;19.61;42.55;94649.94;6109697;19;2118;-70
2022/11/05 10:06:33;;;;;;;;;;;;;;;19.62;42.49;94651.56;6106934;19;1349;-70
2022/11/05 10:08:40;;;;;;;;;;;;;;;19.63;42.59;94650.53;6118401;19;1077;-71
2022/11/05 10:10:44;;;;;;;;;;;;;;;19.63;42.87;94646.03;6120158;19;1861;-70
2022/11/05 10:12:53;;;;;;;;;;;;;;;19.65;42.89;94643.16;6119958;19;2095;-75
2022/11/05 10:15:01;;;;;;;;;;;;;;;19.66;42.61;94639.44;6120986;19;1874;-71
2022/11/05 10:17:06;;;;;;;;;;;;;;;19.67;42.61;94635.78;6096932;19;1825;-70
2022/11/05 10:19:11;;;;;;;;;;;;;;;19.67;42.94;94631.25;6122365;19;1571;-71
2022/11/05 10:21:18;;;;;;;;;;;;;;;19.70;43.22;94627.34;6118657;19;2048;-70
2022/11/05 10:23:22;;;;;;;;;;;;;;;19.72;43.32;94622.63;6121027;19;1822;-71
2022/11/05 10:25:29;;;;;;;;;;;;;;;19.73;43.24;94620.75;6120640;19;1957;-71
2022/11/05 10:27:38;;;;;;;;;;;;;;;19.72;43.41;94624.44;6106330;19;1747;-72
2022/11/05 10:29:45;;;;;;;;;;;;;;;19.47;42.50;94624.38;6112929;19;2097;-71
2022/11/05 10:31:48;;;;;;;;;;;;;;;19.44;42.61;94615.78;6118029;19;2390;-71
2022/11/05 10:33:53;;;;;;;;;;;;;;;19.38;42.29;94616.63;6120485;19;2003;-69
2022/11/05 10:35:59;;;;;;;;;;;;;;;19.43;42.94;94619.50;6121279;19;2435;-69
2022/11/05 10:38:03;;;;;;;;;;;;;;;19.47;43.32;94619.06;6122141;19;1973;-70
2022/11/05 10:40:14;;;;;;;;;;;;;;;19.50;43.03;94629.28;6097770;19;1991;-71
2022/11/05 10:42:27;;;;;;;;;;;;;;;19.51;42.56;94629.06;6117898;19;2038;-71
2022/11/05 10:44:33;;;;;;;;;;;;;;;19.49;42.30;94617.81;6120048;19;2068;-71
2022/11/05 10:46:42;;;;;;;;;;;;;;;19.46;42.47;94618.22;6120303;19;1969;-71
2022/11/05 10:48:51;;;;;;;;;;;;;;;19.42;42.46;94614.34;6126534;19;2061;-70
2022/11/05 10:50:54;;;;;;;;;;;;;;;19.42;42.19;94617.84;6101001;19;2343;-70
2022/11/05 10:52:59;;;;;;;;;;;;;;;19.41;42.53;94612.72;6125807;19;1817;-71
2022/11/05 10:55:04;;;;;;;;;;;;;;;19.42;42.15;94614.34;6126723;19;2093;-71
2022/11/05 10:57:28;;;;;;;;;;;;;;;19.40;41.90;94613.75;6126581;19;3236;-70
2022/11/05 10:59:31;;;;;;;;;;;;;;;19.40;41.66;94606.56;6124848;19;1939;-70
2022/11/05 11:01:35;;;;;;;;;;;;;;;19.41;41.89;94616.22;6111906;19;2236;-70
2022/11/05 11:03:46;;;;;;;;;;;;;;;19.33;42.22;94608.47;6114469;19;2155;-70
2022/11/05 11:05:49;;;;;;;;;;;;;;;19.20;41.32;94603.19;6122299;19;1879;-71
2022/11/05 11:08:03;;;;;;;;;;;;;;;19.24;41.31;94607.09;6124043;19;1127;-71
2022/11/05 11:10:07;;;;;;;;;;;;;;;19.27;41.48;94601.34;6126227;19;1900;-70
2022/11/05 11:12:16;;;;;;;;;;;;;;;19.26;41.89;94599.69;6123423;19;1991;-70
2022/11/05 11:14:22;;;;;;;;;;;;;;;19.31;41.02;94597.19;6102361;19;2100;-71
2022/11/05 11:16:26;;;;;;;;;;;;;;;19.34;41.28;94596.78;6125889;19;1924;-70
2022/11/05 11:18:31;;;;;;;;;;;;;;;19.40;40.93;94598.56;6123673;19;1136;-70
2022/11/05 11:20:45;;;;;;;;;;;;;;;19.40;41.16;94590.59;6124004;19;2212;-70
2022/11/05 11:23:00;;;;;;;;;;;;;;;19.40;41.10;94589.78;6125754;19;1949;-70
2022/11/05 11:25:19;;;;;;;;;;;;;;;19.38;41.04;94584.66;6101057;19;1980;-70
2022/11/05 11:27:24;;;;;;;;;;;;;;;19.31;41.27;94583.06;6124833;19;2082;-70
2022/11/05 11:29:28;;;;;;;;;;;;;;;19.20;40.75;94595.22;6125187;19;1905;-68
2022/11/05 11:31:33;;;;;;;;;;;;;;;19.17;40.93;94590.31;6123986;19;1867;-70
2022/11/05 11:33:38;;;;;;;;;;;;;;;19.17;40.59;94595.63;6123761;19;1911;-70
2022/11/05 11:35:47;;;;;;;;;;;;;;;19.19;41.07;94590.91;6113896;19;2205;-70
2022/11/05 11:37:53;;;;;;;;;;;;;;;19.24;40.96;94593.78;6121868;19;2108;-70
2022/11/05 11:39:58;;;;;;;;;;;;;;;19.22;40.51;94596.63;6126910;19;1767;-70
2022/11/05 11:42:03;;;;;;;;;;;;;;;19.26;40.69;94589.03;6123584;19;2031;-71
2022/11/05 11:44:10;;;;;;;;;;;;;;;19.29;40.86;94591.28;6125257;19;1920;-71